sensor_id;sensor_type;location;lat;lon;timestamp;temperature;humidity
5554;DHT22;2800;49.528;8.666;2023-04-03T00:00:56;3.10;99.90
5554;DHT22;2800;49.528;8.666;2023-04-03T00:03:21;3.00;99.90
5554;DHT22;2800;49.528;8.666;2023-04-03T00:05:47;3.10;99.90
5554;DHT22;2800;49.528;8.666;2023-04-03T00:08:13;3.20;99.90
5554;DHT22;2800;49.528;8.666;2023-04-03T00:10:38;4.10;99.90
5554;DHT22;2800;49.528;8.666;2023-04-03T00:13:05;3.10;99.90
5554;DHT22;2800;49.528;8.666;2023-04-03T00:15:32;3.10;99.90
5554;DHT22;2800;49.528;8.666;2023-04-03T00:17:58;3.00;99.90
5554;DHT22;2800;49.528;8.666;2023-04-03T00:20:23;2.90;99.90
5554;DHT22;2800;49.528;8.666;2023-04-03T00:22:49;2.80;99.90
5554;DHT22;2800;49.528;8.666;2023-04-03T00:25:14;2.70;99.90
5554;DHT22;2800;49.528;8.666;2023-04-03T00:27:40;2.70;99.90
5554;DHT22;2800;49.528;8.666;2023-04-03T00:30:09;2.60;99.90
5554;DHT22;2800;49.528;8.666;2023-04-03T00:32:36;2.60;99.90
5554;DHT22;2800;49.528;8.666;2023-04-03T00:35:01;2.60;99.90
5554;DHT22;2800;49.528;8.666;2023-04-03T00:37:27;2.50;99.90
5554;DHT22;2800;49.528;8.666;2023-04-03T00:39:52;2.50;99.90
5554;DHT22;2800;49.528;8.666;2023-04-03T00:42:18;2.40;99.90
5554;DHT22;2800;49.528;8.666;2023-04-03T00:47:12;2.40;99.90
5554;DHT22;2800;49.528;8.666;2023-04-03T00:49:39;2.30;99.90
5554;DHT22;2800;49.528;8.666;2023-04-03T00:52:10;2.30;99.90
5554;DHT22;2800;49.528;8.666;2023-04-03T00:54:37;2.30;99.90
5554;DHT22;2800;49.528;8.666;2023-04-03T00:57:05;2.20;99.90
5554;DHT22;2800;49.528;8.666;2023-04-03T00:59:34;2.20;99.90
5554;DHT22;2800;49.528;8.666;2023-04-03T01:02:01;2.10;99.90
5554;DHT22;2800;49.528;8.666;2023-04-03T01:04:33;2.00;99.90
5554;DHT22;2800;49.528;8.666;2023-04-03T01:07:05;2.00;99.90
5554;DHT22;2800;49.528;8.666;2023-04-03T01:09:32;1.90;99.90
5554;DHT22;2800;49.528;8.666;2023-04-03T01:12:25;1.90;99.90
5554;DHT22;2800;49.528;8.666;2023-04-03T01:15:03;1.90;99.90
5554;DHT22;2800;49.528;8.666;2023-04-03T01:20:31;1.80;99.90
5554;DHT22;2800;49.528;8.666;2023-04-03T01:25:56;1.90;99.90
5554;DHT22;2800;49.528;8.666;2023-04-03T01:28:31;1.90;99.90
5554;DHT22;2800;49.528;8.666;2023-04-03T01:33:28;1.90;99.90
5554;DHT22;2800;49.528;8.666;2023-04-03T01:35:54;1.90;99.90
5554;DHT22;2800;49.528;8.666;2023-04-03T01:38:19;1.80;99.90
5554;DHT22;2800;49.528;8.666;2023-04-03T01:40:45;1.90;99.90
5554;DHT22;2800;49.528;8.666;2023-04-03T01:43:11;1.80;99.90
5554;DHT22;2800;49.528;8.666;2023-04-03T01:45:37;1.80;99.90
5554;DHT22;2800;49.528;8.666;2023-04-03T01:48:03;1.80;99.90
5554;DHT22;2800;49.528;8.666;2023-04-03T01:50:29;1.70;99.90
5554;DHT22;2800;49.528;8.666;2023-04-03T01:52:54;1.70;99.90
5554;DHT22;2800;49.528;8.666;2023-04-03T01:55:20;1.60;99.90
5554;DHT22;2800;49.528;8.666;2023-04-03T01:57:45;1.60;99.90
5554;DHT22;2800;49.528;8.666;2023-04-03T02:00:11;1.60;99.90
5554;DHT22;2800;49.528;8.666;2023-04-03T02:02:37;1.60;99.90
5554;DHT22;2800;49.528;8.666;2023-04-03T02:05:03;1.60;99.90
5554;DHT22;2800;49.528;8.666;2023-04-03T02:07:29;1.60;99.90
5554;DHT22;2800;49.528;8.666;2023-04-03T02:09:54;1.60;99.90
5554;DHT22;2800;49.528;8.666;2023-04-03T02:12:20;1.60;99.90
5554;DHT22;2800;49.528;8.666;2023-04-03T02:14:45;1.80;99.90
5554;DHT22;2800;49.528;8.666;2023-04-03T02:17:11;1.80;99.90
5554;DHT22;2800;49.528;8.666;2023-04-03T02:19:36;1.80;99.90
5554;DHT22;2800;49.528;8.666;2023-04-03T02:22:03;1.70;99.90
5554;DHT22;2800;49.528;8.666;2023-04-03T02:24:29;1.80;99.90
5554;DHT22;2800;49.528;8.666;2023-04-03T02:26:54;1.70;99.90
5554;DHT22;2800;49.528;8.666;2023-04-03T02:29:20;1.70;99.90
5554;DHT22;2800;49.528;8.666;2023-04-03T02:31:46;1.70;99.90
5554;DHT22;2800;49.528;8.666;2023-04-03T02:34:11;1.70;99.90
5554;DHT22;2800;49.528;8.666;2023-04-03T02:36:37;1.60;99.90
5554;DHT22;2800;49.528;8.666;2023-04-03T02:39:03;1.60;99.90
5554;DHT22;2800;49.528;8.666;2023-04-03T02:41:28;1.60;99.90
5554;DHT22;2800;49.528;8.666;2023-04-03T02:44:03;1.50;99.90
5554;DHT22;2800;49.528;8.666;2023-04-03T02:46:29;1.50;99.90
5554;DHT22;2800;49.528;8.666;2023-04-03T02:48:54;1.40;99.90
5554;DHT22;2800;49.528;8.666;2023-04-03T02:51:20;1.30;99.90
5554;DHT22;2800;49.528;8.666;2023-04-03T02:53:45;1.30;99.90
5554;DHT22;2800;49.528;8.666;2023-04-03T02:56:11;1.30;99.90
5554;DHT22;2800;49.528;8.666;2023-04-03T02:58:36;1.30;99.90
5554;DHT22;2800;49.528;8.666;2023-04-03T03:01:02;1.30;99.90
5554;DHT22;2800;49.528;8.666;2023-04-03T03:03:28;1.20;99.90
5554;DHT22;2800;49.528;8.666;2023-04-03T03:06:05;1.20;99.90
5554;DHT22;2800;49.528;8.666;2023-04-03T03:08:30;1.20;99.90
5554;DHT22;2800;49.528;8.666;2023-04-03T03:10:56;1.20;99.90
5554;DHT22;2800;49.528;8.666;2023-04-03T03:13:22;1.20;99.90
5554;DHT22;2800;49.528;8.666;2023-04-03T03:15:47;1.20;99.90
5554;DHT22;2800;49.528;8.666;2023-04-03T03:18:13;1.20;99.90
5554;DHT22;2800;49.528;8.666;2023-04-03T03:20:39;1.30;99.90
5554;DHT22;2800;49.528;8.666;2023-04-03T03:23:04;1.20;99.90
5554;DHT22;2800;49.528;8.666;2023-04-03T03:25:30;1.20;99.90
5554;DHT22;2800;49.528;8.666;2023-04-03T03:27:55;1.20;99.90
5554;DHT22;2800;49.528;8.666;2023-04-03T03:30:21;1.10;99.90
5554;DHT22;2800;49.528;8.666;2023-04-03T03:32:47;1.10;99.90
5554;DHT22;2800;49.528;8.666;2023-04-03T03:35:12;1.00;99.90
5554;DHT22;2800;49.528;8.666;2023-04-03T03:37:38;1.20;99.90
5554;DHT22;2800;49.528;8.666;2023-04-03T03:40:04;1.10;99.90
5554;DHT22;2800;49.528;8.666;2023-04-03T03:42:29;1.00;99.90
5554;DHT22;2800;49.528;8.666;2023-04-03T03:44:55;0.90;99.90
5554;DHT22;2800;49.528;8.666;2023-04-03T03:47:20;0.90;99.90
5554;DHT22;2800;49.528;8.666;2023-04-03T03:49:46;1.00;99.90
5554;DHT22;2800;49.528;8.666;2023-04-03T03:52:11;1.00;99.90
5554;DHT22;2800;49.528;8.666;2023-04-03T03:54:37;0.90;99.90
5554;DHT22;2800;49.528;8.666;2023-04-03T03:57:03;0.90;99.90
5554;DHT22;2800;49.528;8.666;2023-04-03T03:59:28;0.80;99.90
5554;DHT22;2800;49.528;8.666;2023-04-03T04:01:54;0.80;99.90
5554;DHT22;2800;49.528;8.666;2023-04-03T04:04:20;0.80;99.90
5554;DHT22;2800;49.528;8.666;2023-04-03T04:06:46;0.80;99.90
5554;DHT22;2800;49.528;8.666;2023-04-03T04:09:12;0.70;99.90
5554;DHT22;2800;49.528;8.666;2023-04-03T04:11:37;0.60;99.90
5554;DHT22;2800;49.528;8.666;2023-04-03T04:14:05;0.60;99.90
5554;DHT22;2800;49.528;8.666;2023-04-03T04:16:30;0.50;99.90
5554;DHT22;2800;49.528;8.666;2023-04-03T04:18:56;0.50;99.90
5554;DHT22;2800;49.528;8.666;2023-04-03T04:21:21;0.50;99.90
5554;DHT22;2800;49.528;8.666;2023-04-03T04:23:47;0.50;99.90
5554;DHT22;2800;49.528;8.666;2023-04-03T04:26:13;0.40;99.90
5554;DHT22;2800;49.528;8.666;2023-04-03T04:28:38;0.40;99.90
5554;DHT22;2800;49.528;8.666;2023-04-03T04:31:04;0.40;99.90
5554;DHT22;2800;49.528;8.666;2023-04-03T04:33:29;0.40;99.90
5554;DHT22;2800;49.528;8.666;2023-04-03T04:35:55;0.30;99.90
5554;DHT22;2800;49.528;8.666;2023-04-03T04:38:21;0.30;99.90
5554;DHT22;2800;49.528;8.666;2023-04-03T04:40:48;0.10;99.90
5554;DHT22;2800;49.528;8.666;2023-04-03T04:43:14;0.10;99.90
5554;DHT22;2800;49.528;8.666;2023-04-03T04:45:40;0.10;99.90
5554;DHT22;2800;49.528;8.666;2023-04-03T04:48:06;0.00;99.90
5554;DHT22;2800;49.528;8.666;2023-04-03T04:50:31;0.00;99.90
5554;DHT22;2800;49.528;8.666;2023-04-03T04:52:57;0.00;99.90
5554;DHT22;2800;49.528;8.666;2023-04-03T04:55:23;0.00;99.90
5554;DHT22;2800;49.528;8.666;2023-04-03T04:57:48;0.10;99.90
5554;DHT22;2800;49.528;8.666;2023-04-03T05:00:14;0.00;99.90
5554;DHT22;2800;49.528;8.666;2023-04-03T05:02:40;-0.10;99.90
5554;DHT22;2800;49.528;8.666;2023-04-03T05:05:06;0.00;99.90
5554;DHT22;2800;49.528;8.666;2023-04-03T05:07:32;-0.10;99.90
5554;DHT22;2800;49.528;8.666;2023-04-03T05:09:57;-0.10;99.90
5554;DHT22;2800;49.528;8.666;2023-04-03T05:12:23;-0.10;99.90
5554;DHT22;2800;49.528;8.666;2023-04-03T05:14:48;-0.10;99.90
5554;DHT22;2800;49.528;8.666;2023-04-03T05:17:14;0.00;99.90
5554;DHT22;2800;49.528;8.666;2023-04-03T05:19:39;0.00;99.90
5554;DHT22;2800;49.528;8.666;2023-04-03T05:22:05;0.10;99.90
5554;DHT22;2800;49.528;8.666;2023-04-03T05:24:30;0.00;99.90
5554;DHT22;2800;49.528;8.666;2023-04-03T05:26:56;-0.10;99.90
5554;DHT22;2800;49.528;8.666;2023-04-03T05:29:22;-0.10;99.90
5554;DHT22;2800;49.528;8.666;2023-04-03T05:31:49;-0.10;99.90
5554;DHT22;2800;49.528;8.666;2023-04-03T05:34:15;0.00;99.90
5554;DHT22;2800;49.528;8.666;2023-04-03T05:36:41;0.10;99.90
5554;DHT22;2800;49.528;8.666;2023-04-03T05:39:07;0.20;99.90
5554;DHT22;2800;49.528;8.666;2023-04-03T05:41:33;0.10;99.90
5554;DHT22;2800;49.528;8.666;2023-04-03T05:43:58;0.10;99.90
5554;DHT22;2800;49.528;8.666;2023-04-03T05:46:24;0.00;99.90
5554;DHT22;2800;49.528;8.666;2023-04-03T05:48:49;0.20;99.90
5554;DHT22;2800;49.528;8.666;2023-04-03T05:51:24;0.10;99.90
5554;DHT22;2800;49.528;8.666;2023-04-03T05:53:56;0.20;99.90
5554;DHT22;2800;49.528;8.666;2023-04-03T05:56:24;0.40;99.90
5554;DHT22;2800;49.528;8.666;2023-04-03T05:58:49;0.50;99.90
5554;DHT22;2800;49.528;8.666;2023-04-03T06:01:15;0.50;99.90
5554;DHT22;2800;49.528;8.666;2023-04-03T06:03:41;0.70;99.90
5554;DHT22;2800;49.528;8.666;2023-04-03T06:06:06;1.20;99.90
5554;DHT22;2800;49.528;8.666;2023-04-03T06:08:33;1.70;99.90
5554;DHT22;2800;49.528;8.666;2023-04-03T06:11:00;2.20;99.90
5554;DHT22;2800;49.528;8.666;2023-04-03T06:13:26;2.80;99.90
5554;DHT22;2800;49.528;8.666;2023-04-03T06:15:51;3.30;99.90
5554;DHT22;2800;49.528;8.666;2023-04-03T06:18:17;3.80;99.90
5554;DHT22;2800;49.528;8.666;2023-04-03T06:20:43;3.80;99.90
5554;DHT22;2800;49.528;8.666;2023-04-03T06:23:08;3.60;99.90
5554;DHT22;2800;49.528;8.666;2023-04-03T06:25:34;3.60;99.90
5554;DHT22;2800;49.528;8.666;2023-04-03T06:27:59;3.50;99.90
5554;DHT22;2800;49.528;8.666;2023-04-03T06:30:26;3.70;99.90
5554;DHT22;2800;49.528;8.666;2023-04-03T06:32:51;4.10;99.90
5554;DHT22;2800;49.528;8.666;2023-04-03T06:35:17;4.50;99.90
5554;DHT22;2800;49.528;8.666;2023-04-03T06:37:43;4.90;99.90
5554;DHT22;2800;49.528;8.666;2023-04-03T06:40:15;5.20;99.90
5554;DHT22;2800;49.528;8.666;2023-04-03T06:42:43;5.60;99.90
5554;DHT22;2800;49.528;8.666;2023-04-03T06:45:09;5.80;99.90
5554;DHT22;2800;49.528;8.666;2023-04-03T06:47:36;6.10;99.90
5554;DHT22;2800;49.528;8.666;2023-04-03T06:50:02;6.30;99.90
5554;DHT22;2800;49.528;8.666;2023-04-03T06:52:27;6.50;99.90
5554;DHT22;2800;49.528;8.666;2023-04-03T06:54:53;6.50;99.90
5554;DHT22;2800;49.528;8.666;2023-04-03T06:57:22;6.30;99.90
5554;DHT22;2800;49.528;8.666;2023-04-03T06:59:48;6.40;99.90
5554;DHT22;2800;49.528;8.666;2023-04-03T07:02:13;6.50;99.90
5554;DHT22;2800;49.528;8.666;2023-04-03T07:04:39;6.90;99.90
5554;DHT22;2800;49.528;8.666;2023-04-03T07:07:04;6.90;99.90
5554;DHT22;2800;49.528;8.666;2023-04-03T07:09:30;6.90;99.90
5554;DHT22;2800;49.528;8.666;2023-04-03T07:11:55;6.90;99.90
5554;DHT22;2800;49.528;8.666;2023-04-03T07:14:21;6.80;99.90
5554;DHT22;2800;49.528;8.666;2023-04-03T07:16:46;6.40;99.90
5554;DHT22;2800;49.528;8.666;2023-04-03T07:19:12;6.20;99.90
5554;DHT22;2800;49.528;8.666;2023-04-03T07:21:38;6.40;99.90
5554;DHT22;2800;49.528;8.666;2023-04-03T07:24:03;6.30;99.90
5554;DHT22;2800;49.528;8.666;2023-04-03T07:26:29;6.40;99.90
5554;DHT22;2800;49.528;8.666;2023-04-03T07:28:55;6.80;99.90
5554;DHT22;2800;49.528;8.666;2023-04-03T07:31:21;7.40;99.90
5554;DHT22;2800;49.528;8.666;2023-04-03T07:33:46;7.60;99.90
5554;DHT22;2800;49.528;8.666;2023-04-03T07:36:16;7.40;99.90
5554;DHT22;2800;49.528;8.666;2023-04-03T07:38:42;7.50;99.90
5554;DHT22;2800;49.528;8.666;2023-04-03T07:41:12;8.00;99.90
5554;DHT22;2800;49.528;8.666;2023-04-03T07:43:39;7.90;99.90
5554;DHT22;2800;49.528;8.666;2023-04-03T07:46:05;7.80;99.90
5554;DHT22;2800;49.528;8.666;2023-04-03T07:48:30;7.90;99.90
5554;DHT22;2800;49.528;8.666;2023-04-03T07:50:59;8.10;99.90
5554;DHT22;2800;49.528;8.666;2023-04-03T07:53:25;8.40;99.90
5554;DHT22;2800;49.528;8.666;2023-04-03T07:55:51;8.30;99.90
5554;DHT22;2800;49.528;8.666;2023-04-03T07:58:20;8.50;99.80
5554;DHT22;2800;49.528;8.666;2023-04-03T08:00:46;9.00;99.40
5554;DHT22;2800;49.528;8.666;2023-04-03T08:03:12;9.00;97.60
5554;DHT22;2800;49.528;8.666;2023-04-03T08:05:40;8.80;93.00
5554;DHT22;2800;49.528;8.666;2023-04-03T08:08:06;9.20;93.90
5554;DHT22;2800;49.528;8.666;2023-04-03T08:10:32;9.30;91.80
5554;DHT22;2800;49.528;8.666;2023-04-03T08:12:58;9.20;91.30
5554;DHT22;2800;49.528;8.666;2023-04-03T08:15:24;9.40;88.40
5554;DHT22;2800;49.528;8.666;2023-04-03T08:17:49;8.70;82.80
5554;DHT22;2800;49.528;8.666;2023-04-03T08:20:15;8.90;86.80
5554;DHT22;2800;49.528;8.666;2023-04-03T08:22:41;9.20;80.00
5554;DHT22;2800;49.528;8.666;2023-04-03T08:25:07;8.70;81.00
5554;DHT22;2800;49.528;8.666;2023-04-03T08:27:33;8.90;83.50
5554;DHT22;2800;49.528;8.666;2023-04-03T08:29:58;9.00;84.70
5554;DHT22;2800;49.528;8.666;2023-04-03T08:32:24;9.70;83.60
5554;DHT22;2800;49.528;8.666;2023-04-03T08:34:50;10.00;79.40
5554;DHT22;2800;49.528;8.666;2023-04-03T08:37:15;10.10;73.60
5554;DHT22;2800;49.528;8.666;2023-04-03T08:39:44;10.00;71.60
5554;DHT22;2800;49.528;8.666;2023-04-03T08:48:01;10.20;65.20
5554;DHT22;2800;49.528;8.666;2023-04-03T08:50:36;10.00;65.70
5554;DHT22;2800;49.528;8.666;2023-04-03T08:53:03;10.00;58.40
5554;DHT22;2800;49.528;8.666;2023-04-03T08:55:34;10.00;61.50
5554;DHT22;2800;49.528;8.666;2023-04-03T08:58:06;10.30;59.60
5554;DHT22;2800;49.528;8.666;2023-04-03T09:00:46;11.10;59.60
5554;DHT22;2800;49.528;8.666;2023-04-03T09:03:18;10.20;52.60
5554;DHT22;2800;49.528;8.666;2023-04-03T09:06:38;11.20;55.60
5554;DHT22;2800;49.528;8.666;2023-04-03T09:19:58;11.40;48.70
5554;DHT22;2800;49.528;8.666;2023-04-03T09:22:32;11.40;48.00
5554;DHT22;2800;49.528;8.666;2023-04-03T09:27:35;11.70;45.50
5554;DHT22;2800;49.528;8.666;2023-04-03T09:30:02;11.40;46.70
5554;DHT22;2800;49.528;8.666;2023-04-03T09:32:33;11.90;44.60
5554;DHT22;2800;49.528;8.666;2023-04-03T09:35:03;11.70;44.30
5554;DHT22;2800;49.528;8.666;2023-04-03T09:37:44;11.90;43.70
5554;DHT22;2800;49.528;8.666;2023-04-03T09:40:30;11.30;40.80
5554;DHT22;2800;49.528;8.666;2023-04-03T09:42:59;10.30;41.20
5554;DHT22;2800;49.528;8.666;2023-04-03T09:50:53;9.10;40.70
5554;DHT22;2800;49.528;8.666;2023-04-03T09:53:47;9.40;42.80
5554;DHT22;2800;49.528;8.666;2023-04-03T09:56:21;9.60;41.30
5554;DHT22;2800;49.528;8.666;2023-04-03T09:59:11;10.90;41.50
5554;DHT22;2800;49.528;8.666;2023-04-03T10:01:39;10.90;42.80
5554;DHT22;2800;49.528;8.666;2023-04-03T10:04:12;11.10;42.20
5554;DHT22;2800;49.528;8.666;2023-04-03T10:06:43;11.20;41.90
5554;DHT22;2800;49.528;8.666;2023-04-03T10:12:05;10.70;39.70
5554;DHT22;2800;49.528;8.666;2023-04-03T10:14:33;10.40;40.70
5554;DHT22;2800;49.528;8.666;2023-04-03T10:20:02;9.70;40.50
5554;DHT22;2800;49.528;8.666;2023-04-03T10:23:00;10.40;41.20
5554;DHT22;2800;49.528;8.666;2023-04-03T10:25:40;11.20;42.00
5554;DHT22;2800;49.528;8.666;2023-04-03T10:28:20;9.90;37.60
5554;DHT22;2800;49.528;8.666;2023-04-03T10:39:46;10.80;40.00
5554;DHT22;2800;49.528;8.666;2023-04-03T10:44:52;10.30;38.90
5554;DHT22;2800;49.528;8.666;2023-04-03T10:50:36;9.60;39.70
5554;DHT22;2800;49.528;8.666;2023-04-03T10:53:22;9.60;39.50
5554;DHT22;2800;49.528;8.666;2023-04-03T10:56:03;9.40;39.20
5554;DHT22;2800;49.528;8.666;2023-04-03T10:58:40;9.40;39.10
5554;DHT22;2800;49.528;8.666;2023-04-03T11:01:30;9.50;39.40
5554;DHT22;2800;49.528;8.666;2023-04-03T11:03:59;9.30;38.50
5554;DHT22;2800;49.528;8.666;2023-04-03T11:06:31;9.20;39.00
5554;DHT22;2800;49.528;8.666;2023-04-03T11:09:28;9.10;39.90
5554;DHT22;2800;49.528;8.666;2023-04-03T11:12:03;9.30;39.90
5554;DHT22;2800;49.528;8.666;2023-04-03T11:14:32;9.30;41.30
5554;DHT22;2800;49.528;8.666;2023-04-03T11:19:39;10.10;39.80
5554;DHT22;2800;49.528;8.666;2023-04-03T11:24:37;9.40;39.60
5554;DHT22;2800;49.528;8.666;2023-04-03T11:27:05;9.10;39.90
5554;DHT22;2800;49.528;8.666;2023-04-03T11:29:39;8.90;39.20
5554;DHT22;2800;49.528;8.666;2023-04-03T11:35:17;8.30;38.30
5554;DHT22;2800;49.528;8.666;2023-04-03T11:37:47;8.90;40.70
5554;DHT22;2800;49.528;8.666;2023-04-03T12:13:40;9.70;37.40
5554;DHT22;2800;49.528;8.666;2023-04-03T12:16:21;9.90;38.50
5554;DHT22;2800;49.528;8.666;2023-04-03T12:26:40;8.90;36.60
5554;DHT22;2800;49.528;8.666;2023-04-03T12:29:20;8.20;35.90
5554;DHT22;2800;49.528;8.666;2023-04-03T12:32:04;8.20;37.10
5554;DHT22;2800;49.528;8.666;2023-04-03T12:37:17;11.30;39.90
5554;DHT22;2800;49.528;8.666;2023-04-03T12:42:37;12.80;38.10
5554;DHT22;2800;49.528;8.666;2023-04-03T12:45:12;13.50;38.70
5554;DHT22;2800;49.528;8.666;2023-04-03T12:47:42;12.50;37.00
5554;DHT22;2800;49.528;8.666;2023-04-03T12:50:24;12.60;35.30
5554;DHT22;2800;49.528;8.666;2023-04-03T12:53:04;14.00;39.70
5554;DHT22;2800;49.528;8.666;2023-04-03T12:55:30;13.40;33.10
5554;DHT22;2800;49.528;8.666;2023-04-03T12:57:56;14.00;35.60
5554;DHT22;2800;49.528;8.666;2023-04-03T13:02:47;12.40;35.00
5554;DHT22;2800;49.528;8.666;2023-04-03T13:05:17;11.50;33.10
5554;DHT22;2800;49.528;8.666;2023-04-03T13:07:43;11.30;34.10
5554;DHT22;2800;49.528;8.666;2023-04-03T13:12:35;10.70;31.60
5554;DHT22;2800;49.528;8.666;2023-04-03T13:17:48;13.40;33.70
5554;DHT22;2800;49.528;8.666;2023-04-03T13:20:28;15.00;35.50
5554;DHT22;2800;49.528;8.666;2023-04-03T13:23:08;16.30;38.90
5554;DHT22;2800;49.528;8.666;2023-04-03T13:25:36;14.50;35.90
5554;DHT22;2800;49.528;8.666;2023-04-03T13:28:04;12.00;32.90
5554;DHT22;2800;49.528;8.666;2023-04-03T13:30:35;10.20;30.60
5554;DHT22;2800;49.528;8.666;2023-04-03T13:33:22;10.10;31.20
5554;DHT22;2800;49.528;8.666;2023-04-03T13:35:56;12.40;32.60
5554;DHT22;2800;49.528;8.666;2023-04-03T13:38:26;12.50;31.50
5554;DHT22;2800;49.528;8.666;2023-04-03T13:40:54;14.00;34.30
5554;DHT22;2800;49.528;8.666;2023-04-03T13:43:24;15.70;36.50
5554;DHT22;2800;49.528;8.666;2023-04-03T13:45:56;16.50;35.50
5554;DHT22;2800;49.528;8.666;2023-04-03T13:48:22;15.90;35.00
5554;DHT22;2800;49.528;8.666;2023-04-03T13:53:24;16.70;36.60
5554;DHT22;2800;49.528;8.666;2023-04-03T13:55:59;17.10;38.20
5554;DHT22;2800;49.528;8.666;2023-04-03T13:58:31;14.80;34.70
5554;DHT22;2800;49.528;8.666;2023-04-03T14:01:14;14.40;34.30
5554;DHT22;2800;49.528;8.666;2023-04-03T14:04:09;15.00;32.30
5554;DHT22;2800;49.528;8.666;2023-04-03T14:06:36;14.60;32.10
5554;DHT22;2800;49.528;8.666;2023-04-03T14:09:02;15.00;32.90
5554;DHT22;2800;49.528;8.666;2023-04-03T14:11:30;14.70;32.30
5554;DHT22;2800;49.528;8.666;2023-04-03T14:14:01;15.70;34.60
5554;DHT22;2800;49.528;8.666;2023-04-03T14:16:31;16.50;36.40
5554;DHT22;2800;49.528;8.666;2023-04-03T14:18:57;16.00;34.20
5554;DHT22;2800;49.528;8.666;2023-04-03T14:21:23;16.50;35.50
5554;DHT22;2800;49.528;8.666;2023-04-03T14:23:49;15.90;34.50
5554;DHT22;2800;49.528;8.666;2023-04-03T14:26:18;16.00;34.20
5554;DHT22;2800;49.528;8.666;2023-04-03T14:28:46;15.90;35.00
5554;DHT22;2800;49.528;8.666;2023-04-03T14:31:13;15.30;34.50
5554;DHT22;2800;49.528;8.666;2023-04-03T14:33:40;15.50;33.60
5554;DHT22;2800;49.528;8.666;2023-04-03T14:36:16;14.00;32.60
5554;DHT22;2800;49.528;8.666;2023-04-03T14:38:43;14.40;33.00
5554;DHT22;2800;49.528;8.666;2023-04-03T14:41:12;15.00;34.20
5554;DHT22;2800;49.528;8.666;2023-04-03T14:43:38;15.10;33.70
5554;DHT22;2800;49.528;8.666;2023-04-03T14:46:04;15.60;34.70
5554;DHT22;2800;49.528;8.666;2023-04-03T14:48:30;14.80;34.50
5554;DHT22;2800;49.528;8.666;2023-04-03T14:50:56;15.10;34.60
5554;DHT22;2800;49.528;8.666;2023-04-03T14:53:21;15.80;36.60
5554;DHT22;2800;49.528;8.666;2023-04-03T14:55:50;15.30;35.30
5554;DHT22;2800;49.528;8.666;2023-04-03T14:58:18;16.10;37.40
5554;DHT22;2800;49.528;8.666;2023-04-03T15:00:44;15.90;36.30
5554;DHT22;2800;49.528;8.666;2023-04-03T15:03:18;14.20;33.50
5554;DHT22;2800;49.528;8.666;2023-04-03T15:05:46;14.70;34.60
5554;DHT22;2800;49.528;8.666;2023-04-03T15:08:26;14.60;35.30
5554;DHT22;2800;49.528;8.666;2023-04-03T15:10:54;15.40;34.90
5554;DHT22;2800;49.528;8.666;2023-04-03T15:13:21;16.20;36.50
5554;DHT22;2800;49.528;8.666;2023-04-03T15:15:47;15.90;37.00
5554;DHT22;2800;49.528;8.666;2023-04-03T15:18:25;15.50;34.90
5554;DHT22;2800;49.528;8.666;2023-04-03T15:20:52;15.40;36.10
5554;DHT22;2800;49.528;8.666;2023-04-03T15:23:18;14.70;34.40
5554;DHT22;2800;49.528;8.666;2023-04-03T15:25:46;15.40;34.60
5554;DHT22;2800;49.528;8.666;2023-04-03T15:28:19;15.00;34.30
5554;DHT22;2800;49.528;8.666;2023-04-03T15:30:47;14.00;33.10
5554;DHT22;2800;49.528;8.666;2023-04-03T15:33:13;14.50;35.00
5554;DHT22;2800;49.528;8.666;2023-04-03T15:35:38;15.30;35.60
5554;DHT22;2800;49.528;8.666;2023-04-03T15:38:04;14.60;33.90
5554;DHT22;2800;49.528;8.666;2023-04-03T15:40:29;14.00;34.00
5554;DHT22;2800;49.528;8.666;2023-04-03T15:42:55;12.20;30.40
5554;DHT22;2800;49.528;8.666;2023-04-03T15:45:21;12.80;31.30
5554;DHT22;2800;49.528;8.666;2023-04-03T15:47:47;13.30;31.30
5554;DHT22;2800;49.528;8.666;2023-04-03T15:50:12;14.30;33.70
5554;DHT22;2800;49.528;8.666;2023-04-03T15:52:38;15.10;34.80
5554;DHT22;2800;49.528;8.666;2023-04-03T15:55:04;14.50;34.10
5554;DHT22;2800;49.528;8.666;2023-04-03T15:57:30;14.90;34.90
5554;DHT22;2800;49.528;8.666;2023-04-03T15:59:55;15.40;35.90
5554;DHT22;2800;49.528;8.666;2023-04-03T16:02:22;14.80;34.70
5554;DHT22;2800;49.528;8.666;2023-04-03T16:04:47;15.00;35.80
5554;DHT22;2800;49.528;8.666;2023-04-03T16:07:13;15.30;35.50
5554;DHT22;2800;49.528;8.666;2023-04-03T16:09:39;15.50;36.50
5554;DHT22;2800;49.528;8.666;2023-04-03T16:12:04;14.10;34.00
5554;DHT22;2800;49.528;8.666;2023-04-03T16:14:30;13.30;33.60
5554;DHT22;2800;49.528;8.666;2023-04-03T16:16:57;13.70;34.00
5554;DHT22;2800;49.528;8.666;2023-04-03T16:19:23;13.50;32.70
5554;DHT22;2800;49.528;8.666;2023-04-03T16:21:48;13.60;34.00
5554;DHT22;2800;49.528;8.666;2023-04-03T16:24:14;14.50;34.30
5554;DHT22;2800;49.528;8.666;2023-04-03T16:26:40;14.10;33.80
5554;DHT22;2800;49.528;8.666;2023-04-03T16:29:05;13.10;32.20
5554;DHT22;2800;49.528;8.666;2023-04-03T16:31:32;13.10;32.60
5554;DHT22;2800;49.528;8.666;2023-04-03T16:33:57;12.70;31.90
5554;DHT22;2800;49.528;8.666;2023-04-03T16:36:24;11.70;30.60
5554;DHT22;2800;49.528;8.666;2023-04-03T16:38:51;11.60;31.30
5554;DHT22;2800;49.528;8.666;2023-04-03T16:41:16;11.70;30.30
5554;DHT22;2800;49.528;8.666;2023-04-03T16:43:42;11.50;30.30
5554;DHT22;2800;49.528;8.666;2023-04-03T16:46:07;11.00;30.00
5554;DHT22;2800;49.528;8.666;2023-04-03T16:48:33;11.00;29.70
5554;DHT22;2800;49.528;8.666;2023-04-03T16:50:59;11.10;29.80
5554;DHT22;2800;49.528;8.666;2023-04-03T16:53:25;10.70;29.70
5554;DHT22;2800;49.528;8.666;2023-04-03T16:55:51;10.40;29.70
5554;DHT22;2800;49.528;8.666;2023-04-03T16:58:17;10.10;30.00
5554;DHT22;2800;49.528;8.666;2023-04-03T17:00:43;9.90;30.00
5554;DHT22;2800;49.528;8.666;2023-04-03T17:03:09;9.60;29.50
5554;DHT22;2800;49.528;8.666;2023-04-03T17:05:35;9.00;28.70
5554;DHT22;2800;49.528;8.666;2023-04-03T17:08:00;8.70;28.80
5554;DHT22;2800;49.528;8.666;2023-04-03T17:10:27;8.60;28.90
5554;DHT22;2800;49.528;8.666;2023-04-03T17:12:53;8.80;28.40
5554;DHT22;2800;49.528;8.666;2023-04-03T17:15:19;8.70;27.70
5554;DHT22;2800;49.528;8.666;2023-04-03T17:17:46;8.20;27.90
5554;DHT22;2800;49.528;8.666;2023-04-03T17:20:11;7.90;27.10
5554;DHT22;2800;49.528;8.666;2023-04-03T17:22:37;7.90;27.40
5554;DHT22;2800;49.528;8.666;2023-04-03T17:25:03;7.90;27.70
5554;DHT22;2800;49.528;8.666;2023-04-03T17:27:29;7.90;27.50
5554;DHT22;2800;49.528;8.666;2023-04-03T17:29:55;7.90;28.00
5554;DHT22;2800;49.528;8.666;2023-04-03T17:32:20;7.70;26.80
5554;DHT22;2800;49.528;8.666;2023-04-03T17:34:46;7.50;27.20
5554;DHT22;2800;49.528;8.666;2023-04-03T17:37:12;7.40;27.30
5554;DHT22;2800;49.528;8.666;2023-04-03T17:39:37;7.30;27.30
5554;DHT22;2800;49.528;8.666;2023-04-03T17:42:03;7.30;27.60
5554;DHT22;2800;49.528;8.666;2023-04-03T17:44:29;7.20;26.90
5554;DHT22;2800;49.528;8.666;2023-04-03T17:46:54;7.10;26.30
5554;DHT22;2800;49.528;8.666;2023-04-03T17:49:20;7.10;26.30
5554;DHT22;2800;49.528;8.666;2023-04-03T17:51:46;7.00;26.90
5554;DHT22;2800;49.528;8.666;2023-04-03T17:54:12;7.00;27.30
5554;DHT22;2800;49.528;8.666;2023-04-03T17:56:38;6.80;26.70
5554;DHT22;2800;49.528;8.666;2023-04-03T17:59:04;6.80;27.30
5554;DHT22;2800;49.528;8.666;2023-04-03T18:01:32;6.70;27.50
5554;DHT22;2800;49.528;8.666;2023-04-03T18:04:00;6.70;27.70
5554;DHT22;2800;49.528;8.666;2023-04-03T18:06:29;6.70;26.50
5554;DHT22;2800;49.528;8.666;2023-04-03T18:09:09;6.60;26.50
5554;DHT22;2800;49.528;8.666;2023-04-03T18:11:35;6.60;27.10
5554;DHT22;2800;49.528;8.666;2023-04-03T18:14:02;6.50;26.40
5554;DHT22;2800;49.528;8.666;2023-04-03T18:16:30;6.50;26.50
5554;DHT22;2800;49.528;8.666;2023-04-03T18:18:55;6.50;26.70